^^
Saratoga-Weather Station Historical Data
Daily Summary for March 11, 2020 Units:  Both    English   Metric
Daily Weekly Monthly Yearly Custom
  High: Low: Average:
Temperature: 70.9 °F /  21.6 °C 54.7 °F /  12.6 °C 62.4 °F /  16.9 °C
Dew Point: 57.4 °F /  14.1 °C 53.6 °F /  12 °C 55.2 °F /  12.9 °C
Humidity: 97% 57% 79%
Wind Speed: 10.1mph /  16.3km/h - 1.3mph /  2.1km/h
Wind Gust: 12mph /  19.3km/h - -
Wind- - East
Pressure: 29.9 in /  1011.2 hPa 29.7 in /  1006.1 hPa -
Precipitation: 0 in /  0.0 mm    
Historical Graphs
 
 
Tabular Data for March 11, 2020
Time Temperature Dew Point Pressure Wind Wind Speed Wind Gust Humidity Rainfall Rate (Hourly) solar
00:04 56.7 °F /  13.7 °C 55.6 °F /  13.1 °C 29.9in /  1011.2hPa Calm     96% 0in /  0.0mm 0 W/m2
00:09 56.7 °F /  13.7 °C 55.6 °F /  13.1 °C 29.9in /  1011.2hPa Calm     96% 0in /  0.0mm 0 W/m2
00:14 56.7 °F /  13.7 °C 55.6 °F /  13.1 °C 29.9in /  1011.2hPa Calm     96% 0in /  0.0mm 0 W/m2
00:19 56.7 °F /  13.7 °C 55.6 °F /  13.1 °C 29.9in /  1011.2hPa Calm     96% 0in /  0.0mm 0 W/m2
00:24 56.5 °F /  13.6 °C 55 °F /  12.8 °C 29.9in /  1011.2hPa Calm   1mph /  1.6km/h 95% 0in /  0.0mm 0 W/m2
00:30 56.5 °F /  13.6 °C 55.4 °F /  13 °C 29.9in /  1011.2hPa Calm     96% 0in /  0.0mm 0 W/m2
00:35 56.5 °F /  13.6 °C 55.4 °F /  13 °C 29.9in /  1011.2hPa Calm     96% 0in /  0.0mm 0 W/m2
00:40 56.5 °F /  13.6 °C 55.4 °F /  13 °C 29.9in /  1011.2hPa Calm     96% 0in /  0.0mm 0 W/m2
00:45 56.5 °F /  13.6 °C 55.4 °F /  13 °C 29.9in /  1010.8hPa Calm     96% 0in /  0.0mm 0 W/m2
00:50 56.5 °F /  13.6 °C 55.4 °F /  13 °C 29.9in /  1011.2hPa Calm     96% 0in /  0.0mm 0 W/m2
00:55 56.5 °F /  13.6 °C 55.4 °F /  13 °C 29.9in /  1011.2hPa West 0.9mph /  1.4km/h 2mph /  3.2km/h 96% 0in /  0.0mm 0 W/m2
01:00 56.5 °F /  13.6 °C 55.4 °F /  13 °C 29.9in /  1011.2hPa Calm   1mph /  1.6km/h 96% 0in /  0.0mm 0 W/m2
01:05 56.5 °F /  13.6 °C 55.4 °F /  13 °C 29.9in /  1010.8hPa Calm     96% 0in /  0.0mm 0 W/m2
01:10 56.7 °F /  13.7 °C 55.6 °F /  13.1 °C 29.9in /  1010.8hPa Calm     96% 0in /  0.0mm 0 W/m2
01:15 56.7 °F /  13.7 °C 55.6 °F /  13.1 °C 29.9in /  1010.8hPa Calm     96% 0in /  0.0mm 0 W/m2
01:20 56.7 °F /  13.7 °C 55.6 °F /  13.1 °C 29.9in /  1010.8hPa Calm     96% 0in /  0.0mm 0 W/m2
01:25 56.7 °F /  13.7 °C 55.6 °F /  13.1 °C 29.9in /  1010.8hPa Calm     96% 0in /  0.0mm 0 W/m2
01:30 56.5 °F /  13.6 °C 55.4 °F /  13 °C 29.9in /  1010.8hPa Calm     96% 0in /  0.0mm 0 W/m2
01:35 56.5 °F /  13.6 °C 55.4 °F /  13 °C 29.9in /  1010.8hPa Calm   1mph /  1.6km/h 96% 0in /  0.0mm 0 W/m2
01:40 56.5 °F /  13.6 °C 55.4 °F /  13 °C 29.9in /  1010.8hPa Calm     96% 0in /  0.0mm 0 W/m2
01:45 56.5 °F /  13.6 °C 55.4 °F /  13 °C 29.9in /  1010.8hPa Calm   2mph /  3.2km/h 96% 0in /  0.0mm 0 W/m2
01:50 56.3 °F /  13.5 °C 55.2 °F /  12.9 °C 29.9in /  1010.8hPa East 2mph /  3.2km/h 2mph /  3.2km/h 96% 0in /  0.0mm 0 W/m2
01:55 56.3 °F /  13.5 °C 55.2 °F /  12.9 °C 29.9in /  1010.8hPa Calm     96% 0in /  0.0mm 0 W/m2
02:00 56.3 °F /  13.5 °C 55.2 °F /  12.9 °C 29.9in /  1010.8hPa Calm   2mph /  3.2km/h 96% 0in /  0.0mm 0 W/m2
02:05 56.3 °F /  13.5 °C 55.2 °F /  12.9 °C 29.9in /  1010.8hPa Calm     96% 0in /  0.0mm 0 W/m2
02:10 56.5 °F /  13.6 °C 55.4 °F /  13 °C 29.8in /  1010.5hPa Calm     96% 0in /  0.0mm 0 W/m2
02:15 56.3 °F /  13.5 °C 55.2 °F /  12.9 °C 29.8in /  1010.5hPa Calm     96% 0in /  0.0mm 0 W/m2
02:20 56.3 °F /  13.5 °C 55.2 °F /  12.9 °C 29.8in /  1010.5hPa Calm     96% 0in /  0.0mm 0 W/m2
02:25 56.3 °F /  13.5 °C 55.2 °F /  12.9 °C 29.8in /  1010.5hPa Calm     96% 0in /  0.0mm 0 W/m2
02:30 56.3 °F /  13.5 °C 55.2 °F /  12.9 °C 29.8in /  1010.5hPa Calm     96% 0in /  0.0mm 0 W/m2
02:35 56.3 °F /  13.5 °C 55.2 °F /  12.9 °C 29.8in /  1010.5hPa Calm   1mph /  1.6km/h 96% 0in /  0.0mm 0 W/m2
02:40 56.1 °F /  13.4 °C 55 °F /  12.8 °C 29.8in /  1010.5hPa Calm   1mph /  1.6km/h 96% 0in /  0.0mm 0 W/m2
02:45 56.1 °F /  13.4 °C 55 °F /  12.8 °C 29.8in /  1010.2hPa Calm   1mph /  1.6km/h 96% 0in /  0.0mm 0 W/m2
02:50 56.1 °F /  13.4 °C 55 °F /  12.8 °C 29.8in /  1010.2hPa ENE 0.9mph /  1.4km/h 1mph /  1.6km/h 96% 0in /  0.0mm 0 W/m2
02:55 55.9 °F /  13.3 °C 54.9 °F /  12.7 °C 29.8in /  1010.2hPa Calm     96% 0in /  0.0mm 0 W/m2
03:00 55.9 °F /  13.3 °C 54.9 °F /  12.7 °C 29.8in /  1010.2hPa Calm   2mph /  3.2km/h 96% 0in /  0.0mm 0 W/m2
03:05 55.9 °F /  13.3 °C 54.9 °F /  12.7 °C 29.8in /  1010.2hPa Calm     96% 0in /  0.0mm 0 W/m2
03:10 55.8 °F /  13.2 °C 54.7 °F /  12.6 °C 29.8in /  1010.2hPa Calm     96% 0in /  0.0mm 0 W/m2
03:15 55.8 °F /  13.2 °C 54.7 °F /  12.6 °C 29.8in /  1010.2hPa Calm     96% 0in /  0.0mm 0 W/m2
03:20 55.8 °F /  13.2 °C 54.7 °F /  12.6 °C 29.8in /  1010.2hPa Calm     96% 0in /  0.0mm 0 W/m2
03:25 55.8 °F /  13.2 °C 54.7 °F /  12.6 °C 29.8in /  1010.2hPa Calm     96% 0in /  0.0mm 0 W/m2
03:30 55.6 °F /  13.1 °C 54.5 °F /  12.5 °C 29.8in /  1010.2hPa Calm     96% 0in /  0.0mm 0 W/m2
03:35 55.6 °F /  13.1 °C 54.5 °F /  12.5 °C 29.8in /  1010.2hPa Calm     96% 0in /  0.0mm 0 W/m2
03:40 55.6 °F /  13.1 °C 54.5 °F /  12.5 °C 29.8in /  1009.8hPa Calm   1mph /  1.6km/h 96% 0in /  0.0mm 0 W/m2
03:45 55.6 °F /  13.1 °C 54.5 °F /  12.5 °C 29.8in /  1009.8hPa Calm   1mph /  1.6km/h 96% 0in /  0.0mm 0 W/m2
03:50 55.6 °F /  13.1 °C 54.5 °F /  12.5 °C 29.8in /  1009.8hPa Calm     96% 0in /  0.0mm 0 W/m2
03:55 55.4 °F /  13 °C 54.3 °F /  12.4 °C 29.8in /  1009.8hPa ESE 0.9mph /  1.4km/h 2mph /  3.2km/h 96% 0in /  0.0mm 0 W/m2
04:00 55.2 °F /  12.9 °C 54.1 °F /  12.3 °C 29.8in /  1009.8hPa Calm   1mph /  1.6km/h 96% 0in /  0.0mm 0 W/m2
04:05 55.2 °F /  12.9 °C 54.1 °F /  12.3 °C 29.8in /  1009.8hPa ESE 2mph /  3.2km/h 2mph /  3.2km/h 96% 0in /  0.0mm 0 W/m2
04:10 55 °F /  12.8 °C 54 °F /  12.2 °C 29.8in /  1009.8hPa Calm     96% 0in /  0.0mm 0 W/m2
04:15 55 °F /  12.8 °C 54 °F /  12.2 °C 29.8in /  1009.8hPa Calm     96% 0in /  0.0mm 0 W/m2
04:20 55 °F /  12.8 °C 54 °F /  12.2 °C 29.8in /  1009.5hPa Calm     96% 0in /  0.0mm 0 W/m2
04:25 55 °F /  12.8 °C 54 °F /  12.2 °C 29.8in /  1009.5hPa Calm   1mph /  1.6km/h 96% 0in /  0.0mm 0 W/m2
04:30 55 °F /  12.8 °C 54 °F /  12.2 °C 29.8in /  1009.5hPa Calm     96% 0in /  0.0mm 0 W/m2
04:35 55.2 °F /  12.9 °C 54.1 °F /  12.3 °C 29.8in /  1009.5hPa Calm   2mph /  3.2km/h 96% 0in /  0.0mm 0 W/m2
04:40 55.2 °F /  12.9 °C 54.1 °F /  12.3 °C 29.8in /  1009.5hPa Calm     96% 0in /  0.0mm 0 W/m2
04:45 55.2 °F /  12.9 °C 54.1 °F /  12.3 °C 29.8in /  1009.5hPa Calm   2mph /  3.2km/h 96% 0in /  0.0mm 0 W/m2
04:50 55 °F /  12.8 °C 54 °F /  12.2 °C 29.8in /  1009.5hPa Calm     96% 0in /  0.0mm 0 W/m2
04:55 55 °F /  12.8 °C 54 °F /  12.2 °C 29.8in /  1009.5hPa Calm     96% 0in /  0.0mm 0 W/m2
05:00 55 °F /  12.8 °C 54 °F /  12.2 °C 29.8in /  1009.5hPa Calm     96% 0in /  0.0mm 0 W/m2
05:05 55 °F /  12.8 °C 54 °F /  12.2 °C 29.8in /  1009.5hPa Calm     96% 0in /  0.0mm 0 W/m2
05:10 55 °F /  12.8 °C 54.1 °F /  12.3 °C 29.8in /  1009.1hPa Calm     97% 0in /  0.0mm 0 W/m2
05:15 54.9 °F /  12.7 °C 54 °F /  12.2 °C 29.8in /  1009.1hPa Calm     97% 0in /  0.0mm 0 W/m2
05:20 54.9 °F /  12.7 °C 54 °F /  12.2 °C 29.8in /  1009.1hPa Calm     97% 0in /  0.0mm 0 W/m2
05:25 54.9 °F /  12.7 °C 53.8 °F /  12.1 °C 29.8in /  1009.1hPa Calm   1mph /  1.6km/h 96% 0in /  0.0mm 0 W/m2
05:30 54.9 °F /  12.7 °C 53.8 °F /  12.1 °C 29.8in /  1009.1hPa Calm     96% 0in /  0.0mm 0 W/m2
05:36 54.9 °F /  12.7 °C 53.8 °F /  12.1 °C 29.8in /  1009.1hPa Calm   1mph /  1.6km/h 96% 0in /  0.0mm 0 W/m2
05:41 54.7 °F /  12.6 °C 53.6 °F /  12 °C 29.8in /  1009.1hPa Calm   2mph /  3.2km/h 96% 0in /  0.0mm 0 W/m2
05:46 54.7 °F /  12.6 °C 53.6 °F /  12 °C 29.8in /  1009.1hPa Calm   1mph /  1.6km/h 96% 0in /  0.0mm 0 W/m2
05:51 54.7 °F /  12.6 °C 53.6 °F /  12 °C 29.8in /  1009.1hPa Calm     96% 0in /  0.0mm 0 W/m2
05:56 54.7 °F /  12.6 °C 53.8 °F /  12.1 °C 29.8in /  1009.1hPa Calm     97% 0in /  0.0mm 5 W/m2
06:01 54.9 °F /  12.7 °C 54 °F /  12.2 °C 29.8in /  1009.1hPa Calm     97% 0in /  0.0mm 7 W/m2
06:06 54.9 °F /  12.7 °C 54 °F /  12.2 °C 29.8in /  1009.1hPa Calm     97% 0in /  0.0mm 9 W/m2
06:11 54.9 °F /  12.7 °C 54 °F /  12.2 °C 29.8in /  1009.1hPa Calm     97% 0in /  0.0mm 11 W/m2
06:16 54.9 °F /  12.7 °C 54 °F /  12.2 °C 29.8in /  1009.1hPa Calm   1mph /  1.6km/h 97% 0in /  0.0mm 14 W/m2
06:21 54.9 °F /  12.7 °C 54 °F /  12.2 °C 29.8in /  1009.1hPa Calm     97% 0in /  0.0mm 18 W/m2
06:26 54.9 °F /  12.7 °C 54 °F /  12.2 °C 29.8in /  1009.1hPa Calm   1mph /  1.6km/h 97% 0in /  0.0mm 23 W/m2
06:31 54.9 °F /  12.7 °C 54 °F /  12.2 °C 29.8in /  1009.1hPa Calm     97% 0in /  0.0mm 23 W/m2
06:36 55 °F /  12.8 °C 54.1 °F /  12.3 °C 29.8in /  1009.1hPa Calm     97% 0in /  0.0mm 23 W/m2
06:41 55 °F /  12.8 °C 54.1 °F /  12.3 °C 29.8in /  1009.1hPa Calm     97% 0in /  0.0mm 23 W/m2
06:46 55 °F /  12.8 °C 54.1 °F /  12.3 °C 29.8in /  1009.1hPa Calm     97% 0in /  0.0mm 25 W/m2
06:51 55.2 °F /  12.9 °C 54.3 °F /  12.4 °C 29.8in /  1009.1hPa Calm   1mph /  1.6km/h 97% 0in /  0.0mm 30 W/m2
06:56 55.2 °F /  12.9 °C 54.3 °F /  12.4 °C 29.8in /  1009.1hPa Calm   1mph /  1.6km/h 97% 0in /  0.0mm 37 W/m2
07:01 55.4 °F /  13 °C 54.5 °F /  12.5 °C 29.8in /  1009.1hPa Calm     97% 0in /  0.0mm 51 W/m2
07:06 55.6 °F /  13.1 °C 54.7 °F /  12.6 °C 29.8in /  1009.1hPa Calm   2mph /  3.2km/h 97% 0in /  0.0mm 63 W/m2
07:11 55.6 °F /  13.1 °C 54.7 °F /  12.6 °C 29.8in /  1009.1hPa Calm   1mph /  1.6km/h 97% 0in /  0.0mm 70 W/m2
07:16 55.6 °F /  13.1 °C 54.7 °F /  12.6 °C 29.8in /  1009.1hPa Calm   2mph /  3.2km/h 97% 0in /  0.0mm 70 W/m2
07:21 55.8 °F /  13.2 °C 54.9 °F /  12.7 °C 29.8in /  1009.1hPa Calm     97% 0in /  0.0mm 81 W/m2
07:26 55.9 °F /  13.3 °C 55 °F /  12.8 °C 29.8in /  1009.1hPa Calm     97% 0in /  0.0mm 97 W/m2
07:31 56.1 °F /  13.4 °C 55.2 °F /  12.9 °C 29.8in /  1009.1hPa Calm     97% 0in /  0.0mm 111 W/m2
07:36 56.3 °F /  13.5 °C 55.4 °F /  13 °C 29.8in /  1009.1hPa Calm     97% 0in /  0.0mm 134 W/m2
07:41 56.7 °F /  13.7 °C 55.8 °F /  13.2 °C 29.8in /  1009.1hPa Calm     97% 0in /  0.0mm 141 W/m2
07:46 56.8 °F /  13.8 °C 55.9 °F /  13.3 °C 29.8in /  1009.1hPa Calm     97% 0in /  0.0mm 142 W/m2
07:51 57 °F /  13.9 °C 56.1 °F /  13.4 °C 29.8in /  1009.1hPa Calm     97% 0in /  0.0mm 137 W/m2
07:56 57.4 °F /  14.1 °C 56.5 °F /  13.6 °C 29.8in /  1009.1hPa ESE 0.9mph /  1.4km/h 1mph /  1.6km/h 97% 0in /  0.0mm 121 W/m2
08:01 57 °F /  13.9 °C 56.1 °F /  13.4 °C 29.8in /  1009.1hPa Calm   1mph /  1.6km/h 97% 0in /  0.0mm 123 W/m2
08:06 57 °F /  13.9 °C 55.9 °F /  13.3 °C 29.8in /  1009.1hPa Calm   2mph /  3.2km/h 96% 0in /  0.0mm 171 W/m2
08:11 57.4 °F /  14.1 °C 56.3 °F /  13.5 °C 29.8in /  1009.1hPa ENE 0.9mph /  1.4km/h 2mph /  3.2km/h 96% 0in /  0.0mm 160 W/m2
08:16 57.6 °F /  14.2 °C 56.5 °F /  13.6 °C 29.8in /  1009.1hPa Calm   3mph /  4.8km/h 96% 0in /  0.0mm 202 W/m2
08:21 57.7 °F /  14.3 °C 56.7 °F /  13.7 °C 29.8in /  1009.1hPa Calm   2mph /  3.2km/h 96% 0in /  0.0mm 139 W/m2
08:26 57.9 °F /  14.4 °C 56.1 °F /  13.4 °C 29.8in /  1009.1hPa ENE 0.9mph /  1.4km/h 4mph /  6.4km/h 94% 0in /  0.0mm 149 W/m2
08:31 57.9 °F /  14.4 °C 56.1 °F /  13.4 °C 29.8in /  1009.1hPa Calm   2mph /  3.2km/h 94% 0in /  0.0mm 167 W/m2
08:36 58.3 °F /  14.6 °C 56.3 °F /  13.5 °C 29.8in /  1009.1hPa East 0.9mph /  1.4km/h 5mph /  8km/h 93% 0in /  0.0mm 185 W/m2
08:41 58.5 °F /  14.7 °C 56.5 °F /  13.6 °C 29.8in /  1009.5hPa ENE 0.9mph /  1.4km/h 1mph /  1.6km/h 93% 0in /  0.0mm 162 W/m2
08:46 58.6 °F /  14.8 °C 55.9 °F /  13.3 °C 29.8in /  1009.5hPa NNE 2mph /  3.2km/h 5mph /  8km/h 91% 0in /  0.0mm 120 W/m2
08:51 58.5 °F /  14.7 °C 55.8 °F /  13.2 °C 29.8in /  1009.5hPa East 0.9mph /  1.4km/h 2mph /  3.2km/h 91% 0in /  0.0mm 120 W/m2
08:56 58.5 °F /  14.7 °C 55.6 °F /  13.1 °C 29.8in /  1009.5hPa Calm   2mph /  3.2km/h 90% 0in /  0.0mm 121 W/m2
09:01 58.5 °F /  14.7 °C 55.6 °F /  13.1 °C 29.8in /  1009.5hPa North 2mph /  3.2km/h 2mph /  3.2km/h 90% 0in /  0.0mm 139 W/m2
09:06 58.6 °F /  14.8 °C 55.8 °F /  13.2 °C 29.8in /  1009.5hPa Calm   1mph /  1.6km/h 90% 0in /  0.0mm 165 W/m2
09:11 58.6 °F /  14.8 °C 55.9 °F /  13.3 °C 29.8in /  1009.1hPa Calm   2mph /  3.2km/h 91% 0in /  0.0mm 232 W/m2
09:16 58.8 °F /  14.9 °C 55.9 °F /  13.3 °C 29.8in /  1009.1hPa ESE 0.9mph /  1.4km/h 2mph /  3.2km/h 90% 0in /  0.0mm 246 W/m2
09:21 59.2 °F /  15.1 °C 56.3 °F /  13.5 °C 29.8in /  1009.1hPa Calm   2mph /  3.2km/h 90% 0in /  0.0mm 255 W/m2
09:26 59.4 °F /  15.2 °C 55.8 °F /  13.2 °C 29.8in /  1009.1hPa Calm   1mph /  1.6km/h 88% 0in /  0.0mm 244 W/m2
09:31 59.5 °F /  15.3 °C 55.9 °F /  13.3 °C 29.8in /  1009.1hPa NE 2mph /  3.2km/h 2mph /  3.2km/h 88% 0in /  0.0mm 278 W/m2
09:36 59.9 °F /  15.5 °C 55.9 °F /  13.3 °C 29.8in /  1009.1hPa East 2.9mph /  4.7km/h 5mph /  8km/h 87% 0in /  0.0mm 271 W/m2
09:41 60.1 °F /  15.6 °C 56.5 °F /  13.6 °C 29.8in /  1009.1hPa ENE 0.9mph /  1.4km/h 2mph /  3.2km/h 88% 0in /  0.0mm 264 W/m2
09:46 60.3 °F /  15.7 °C 56.3 °F /  13.5 °C 29.8in /  1009.1hPa ESE 2.9mph /  4.7km/h 3mph /  4.8km/h 87% 0in /  0.0mm 253 W/m2
09:51 60.4 °F /  15.8 °C 56.3 °F /  13.5 °C 29.8in /  1009.1hPa ENE 2mph /  3.2km/h 3mph /  4.8km/h 86% 0in /  0.0mm 279 W/m2
09:56 60.4 °F /  15.8 °C 56.3 °F /  13.5 °C 29.8in /  1009.1hPa NE 0.9mph /  1.4km/h 5mph /  8km/h 86% 0in /  0.0mm 334 W/m2
10:01 60.8 °F /  16 °C 56.3 °F /  13.5 °C 29.8in /  1009.1hPa Calm   1mph /  1.6km/h 85% 0in /  0.0mm 359 W/m2
10:06 61.2 °F /  16.2 °C 56.7 °F /  13.7 °C 29.8in /  1009.1hPa Calm   5mph /  8km/h 85% 0in /  0.0mm 355 W/m2
10:11 61.3 °F /  16.3 °C 56.1 °F /  13.4 °C 29.8in /  1009.1hPa ENE 0.9mph /  1.4km/h 2mph /  3.2km/h 83% 0in /  0.0mm 378 W/m2
10:16 61.5 °F /  16.4 °C 56.7 °F /  13.7 °C 29.8in /  1009.1hPa East 2.9mph /  4.7km/h 4mph /  6.4km/h 84% 0in /  0.0mm 415 W/m2
10:21 61.5 °F /  16.4 °C 55.6 °F /  13.1 °C 29.8in /  1009.1hPa ESE 2mph /  3.2km/h 4mph /  6.4km/h 81% 0in /  0.0mm 343 W/m2
10:27 61.7 °F /  16.5 °C 55.8 °F /  13.2 °C 29.8in /  1009.1hPa NE 0.9mph /  1.4km/h 2mph /  3.2km/h 81% 0in /  0.0mm 348 W/m2
10:32 61.9 °F /  16.6 °C 55.6 °F /  13.1 °C 29.8in /  1009.1hPa South 0.9mph /  1.4km/h 2mph /  3.2km/h 80% 0in /  0.0mm 399 W/m2
10:37 62.1 °F /  16.7 °C 55.8 °F /  13.2 °C 29.8in /  1008.8hPa ENE 4.9mph /  7.9km/h 5mph /  8km/h 80% 0in /  0.0mm 476 W/m2
10:42 62.2 °F /  16.8 °C 55.9 °F /  13.3 °C 29.8in /  1008.8hPa NE 2.9mph /  4.7km/h 3mph /  4.8km/h 80% 0in /  0.0mm 410 W/m2
10:47 62.4 °F /  16.9 °C 55.8 °F /  13.2 °C 29.8in /  1008.8hPa ESE 2mph /  3.2km/h 3mph /  4.8km/h 79% 0in /  0.0mm 443 W/m2
10:52 62.8 °F /  17.1 °C 56.8 °F /  13.8 °C 29.8in /  1008.8hPa Calm   2mph /  3.2km/h 81% 0in /  0.0mm 434 W/m2
10:57 63 °F /  17.2 °C 55.9 °F /  13.3 °C 29.8in /  1008.8hPa East 2mph /  3.2km/h 3mph /  4.8km/h 78% 0in /  0.0mm 455 W/m2
11:02 63.3 °F /  17.4 °C 55.9 °F /  13.3 °C 29.8in /  1008.8hPa NE 2.9mph /  4.7km/h 9mph /  14.5km/h 77% 0in /  0.0mm 492 W/m2
11:07 63.7 °F /  17.6 °C 56.3 °F /  13.5 °C 29.8in /  1008.8hPa SSE 4mph /  6.4km/h 4mph /  6.4km/h 77% 0in /  0.0mm 531 W/m2
11:12 63.9 °F /  17.7 °C 55.8 °F /  13.2 °C 29.8in /  1008.5hPa ESE 0.9mph /  1.4km/h 9mph /  14.5km/h 75% 0in /  0.0mm 555 W/m2
11:17 64.4 °F /  18 °C 56.7 °F /  13.7 °C 29.8in /  1008.5hPa ENE 2.9mph /  4.7km/h 4mph /  6.4km/h 76% 0in /  0.0mm 735 W/m2
11:22 65.1 °F /  18.4 °C 57.4 °F /  14.1 °C 29.8in /  1008.5hPa Calm   6mph /  9.7km/h 76% 0in /  0.0mm 963 W/m2
11:27 65.5 °F /  18.6 °C 56.7 °F /  13.7 °C 29.8in /  1008.5hPa SE 2.9mph /  4.7km/h 4mph /  6.4km/h 73% 0in /  0.0mm 780 W/m2
11:32 65.7 °F /  18.7 °C 56.8 °F /  13.8 °C 29.8in /  1008.5hPa Calm   2mph /  3.2km/h 73% 0in /  0.0mm 628 W/m2
11:37 65.8 °F /  18.8 °C 56.5 °F /  13.6 °C 29.8in /  1008.5hPa NW 2mph /  3.2km/h 3mph /  4.8km/h 72% 0in /  0.0mm 974 W/m2
11:42 66.2 °F /  19 °C 56.8 °F /  13.8 °C 29.8in /  1008.5hPa ENE 0.9mph /  1.4km/h 2mph /  3.2km/h 72% 0in /  0.0mm 942 W/m2
11:47 66.7 °F /  19.3 °C 56.7 °F /  13.7 °C 29.8in /  1008.5hPa ESE 2mph /  3.2km/h 3mph /  4.8km/h 70% 0in /  0.0mm 821 W/m2
11:52 66.9 °F /  19.4 °C 56.5 °F /  13.6 °C 29.8in /  1008.5hPa ENE 2.9mph /  4.7km/h 8mph /  12.9km/h 69% 0in /  0.0mm 979 W/m2
11:57 67.6 °F /  19.8 °C 56.7 °F /  13.7 °C 29.8in /  1008.5hPa ENE 2.9mph /  4.7km/h 6mph /  9.7km/h 68% 0in /  0.0mm 953 W/m2
12:02 67.8 °F /  19.9 °C 55.2 °F /  12.9 °C 29.8in /  1008.5hPa East 2mph /  3.2km/h 3mph /  4.8km/h 64% 0in /  0.0mm 1005 W/m2
12:07 67.8 °F /  19.9 °C 55.6 °F /  13.1 °C 29.8in /  1008.5hPa Calm   2mph /  3.2km/h 65% 0in /  0.0mm 283 W/m2
12:12 67.8 °F /  19.9 °C 55.6 °F /  13.1 °C 29.8in /  1008.1hPa NE 0.9mph /  1.4km/h 3mph /  4.8km/h 65% 0in /  0.0mm 211 W/m2
12:18 67.5 °F /  19.7 °C 54.9 °F /  12.7 °C 29.8in /  1008.1hPa NW 0.9mph /  1.4km/h 2mph /  3.2km/h 64% 0in /  0.0mm 229 W/m2
12:23 67.1 °F /  19.5 °C 55.4 °F /  13 °C 29.8in /  1008.1hPa NE 2.9mph /  4.7km/h 3mph /  4.8km/h 66% 0in /  0.0mm 186 W/m2
12:28 66.7 °F /  19.3 °C 54.7 °F /  12.6 °C 29.8in /  1008.1hPa ENE 2mph /  3.2km/h 4mph /  6.4km/h 65% 0in /  0.0mm 283 W/m2
12:33 66.2 °F /  19 °C 54.9 °F /  12.7 °C 29.8in /  1008.1hPa SE 2mph /  3.2km/h 4mph /  6.4km/h 67% 0in /  0.0mm 267 W/m2
12:38 66 °F /  18.9 °C 56.3 °F /  13.5 °C 29.8in /  1008.1hPa Calm   1mph /  1.6km/h 71% 0in /  0.0mm 267 W/m2
12:43 66.2 °F /  19 °C 55.8 °F /  13.2 °C 29.8in /  1008.1hPa ESE 2mph /  3.2km/h 3mph /  4.8km/h 69% 0in /  0.0mm 287 W/m2
12:48 66.9 °F /  19.4 °C 55.6 °F /  13.1 °C 29.8in /  1008.1hPa East 4mph /  6.4km/h 12mph /  19.3km/h 67% 0in /  0.0mm 1099 W/m2
12:53 67.5 °F /  19.7 °C 55.8 °F /  13.2 °C 29.8in /  1008.1hPa Calm   3mph /  4.8km/h 66% 0in /  0.0mm 274 W/m2
12:58 67.5 °F /  19.7 °C 55.8 °F /  13.2 °C 29.8in /  1007.8hPa Calm   12mph /  19.3km/h 66% 0in /  0.0mm 287 W/m2
13:03 67.6 °F /  19.8 °C 55.4 °F /  13 °C 29.8in /  1007.8hPa Calm   1mph /  1.6km/h 65% 0in /  0.0mm 1035 W/m2
13:08 68 °F /  20 °C 55.8 °F /  13.2 °C 29.8in /  1007.8hPa East 2mph /  3.2km/h 7mph /  11.3km/h 65% 0in /  0.0mm 1056 W/m2
13:13 68.4 °F /  20.2 °C 56.5 °F /  13.6 °C 29.8in /  1007.8hPa WNW 4mph /  6.4km/h 4mph /  6.4km/h 66% 0in /  0.0mm 1032 W/m2
13:18 68.7 °F /  20.4 °C 56.8 °F /  13.8 °C 29.8in /  1007.8hPa NE 2.9mph /  4.7km/h 6mph /  9.7km/h 66% 0in /  0.0mm 1018 W/m2
13:23 69.1 °F /  20.6 °C 57.2 °F /  14 °C 29.8in /  1007.8hPa East 4.9mph /  7.9km/h 5mph /  8km/h 66% 0in /  0.0mm 1000 W/m2
13:28 69.1 °F /  20.6 °C 55 °F /  12.8 °C 29.8in /  1007.8hPa NE 0.9mph /  1.4km/h 10mph /  16.1km/h 61% 0in /  0.0mm 954 W/m2
13:33 69.1 °F /  20.6 °C 55 °F /  12.8 °C 29.8in /  1007.8hPa ESE 4mph /  6.4km/h 7mph /  11.3km/h 61% 0in /  0.0mm 990 W/m2
13:38 68.9 °F /  20.5 °C 54.9 °F /  12.7 °C 29.8in /  1007.5hPa NE 2mph /  3.2km/h 10mph /  16.1km/h 61% 0in /  0.0mm 1028 W/m2
13:43 68.7 °F /  20.4 °C 53.8 °F /  12.1 °C 29.8in /  1007.5hPa East 0.9mph /  1.4km/h 4mph /  6.4km/h 59% 0in /  0.0mm 237 W/m2
13:48 68.2 °F /  20.1 °C 54.1 °F /  12.3 °C 29.8in /  1007.5hPa NW 0.9mph /  1.4km/h 6mph /  9.7km/h 61% 0in /  0.0mm 214 W/m2
13:53 67.8 °F /  19.9 °C 54 °F /  12.2 °C 29.8in /  1007.5hPa NE 0.9mph /  1.4km/h 2mph /  3.2km/h 61% 0in /  0.0mm 301 W/m2
13:58 68.4 °F /  20.2 °C 54.9 °F /  12.7 °C 29.8in /  1007.5hPa ENE 4mph /  6.4km/h 4mph /  6.4km/h 62% 0in /  0.0mm 933 W/m2
14:03 69.3 °F /  20.7 °C 56.1 °F /  13.4 °C 29.8in /  1007.5hPa ENE 2.9mph /  4.7km/h 8mph /  12.9km/h 63% 0in /  0.0mm 974 W/m2
14:08 70 °F /  21.1 °C 54.5 °F /  12.5 °C 29.8in /  1007.5hPa NE 2.9mph /  4.7km/h 10mph /  16.1km/h 58% 0in /  0.0mm 1023 W/m2
14:13 69.4 °F /  20.8 °C 54.5 °F /  12.5 °C 29.8in /  1007.5hPa NE 4mph /  6.4km/h 4mph /  6.4km/h 59% 0in /  0.0mm 258 W/m2
14:18 69.6 °F /  20.9 °C 55 °F /  12.8 °C 29.8in /  1007.5hPa NNW 0.9mph /  1.4km/h 9mph /  14.5km/h 60% 0in /  0.0mm 1109 W/m2
14:23 69.8 °F /  21 °C 55.2 °F /  12.9 °C 29.8in /  1007.5hPa NE 4mph /  6.4km/h 6mph /  9.7km/h 60% 0in /  0.0mm 260 W/m2
14:28 69.4 °F /  20.8 °C 55.4 °F /  13 °C 29.8in /  1007.5hPa West 4mph /  6.4km/h 8mph /  12.9km/h 61% 0in /  0.0mm 260 W/m2
14:33 69.1 °F /  20.6 °C 55 °F /  12.8 °C 29.8in /  1007.5hPa ENE 4.9mph /  7.9km/h 5mph /  8km/h 61% 0in /  0.0mm 279 W/m2
14:38 69.1 °F /  20.6 °C 55.6 °F /  13.1 °C 29.8in /  1007.5hPa ENE 2.9mph /  4.7km/h 4mph /  6.4km/h 62% 0in /  0.0mm 288 W/m2
14:43 68.9 °F /  20.5 °C 54.9 °F /  12.7 °C 29.8in /  1007.5hPa East 4mph /  6.4km/h 7mph /  11.3km/h 61% 0in /  0.0mm 311 W/m2
14:48 68.4 °F /  20.2 °C 54.9 °F /  12.7 °C 29.8in /  1007.5hPa ENE 4mph /  6.4km/h 9mph /  14.5km/h 62% 0in /  0.0mm 278 W/m2
14:53 68 °F /  20 °C 54.9 °F /  12.7 °C 29.8in /  1007.5hPa East 0.9mph /  1.4km/h 4mph /  6.4km/h 63% 0in /  0.0mm 153 W/m2
14:58 67.8 °F /  19.9 °C 54.7 °F /  12.6 °C 29.8in /  1007.5hPa SE 4mph /  6.4km/h 9mph /  14.5km/h 63% 0in /  0.0mm 139 W/m2
15:03 67.5 °F /  19.7 °C 54.9 °F /  12.7 °C 29.8in /  1007.5hPa NE 2mph /  3.2km/h 7mph /  11.3km/h 64% 0in /  0.0mm 134 W/m2
15:08 67.1 °F /  19.5 °C 55.4 °F /  13 °C 29.8in /  1007.5hPa SE 0.9mph /  1.4km/h 9mph /  14.5km/h 66% 0in /  0.0mm 139 W/m2
15:13 66.9 °F /  19.4 °C 54.3 °F /  12.4 °C 29.8in /  1007.5hPa ESE 0.9mph /  1.4km/h 5mph /  8km/h 64% 0in /  0.0mm 156 W/m2
15:18 66.9 °F /  19.4 °C 54.3 °F /  12.4 °C 29.8in /  1007.5hPa NE 2mph /  3.2km/h 7mph /  11.3km/h 64% 0in /  0.0mm 188 W/m2
15:23 67.1 °F /  19.5 °C 54.9 °F /  12.7 °C 29.8in /  1007.5hPa ENE 2mph /  3.2km/h 4mph /  6.4km/h 65% 0in /  0.0mm 216 W/m2
15:28 67.3 °F /  19.6 °C 54.7 °F /  12.6 °C 29.8in /  1007.5hPa NNE 0.9mph /  1.4km/h 4mph /  6.4km/h 64% 0in /  0.0mm 301 W/m2
15:34 67.8 °F /  19.9 °C 56.5 °F /  13.6 °C 29.8in /  1007.5hPa East 4mph /  6.4km/h 5mph /  8km/h 67% 0in /  0.0mm 301 W/m2
15:39 68.4 °F /  20.2 °C 55.8 °F /  13.2 °C 29.8in /  1007.5hPa NE 2.9mph /  4.7km/h 8mph /  12.9km/h 64% 0in /  0.0mm 299 W/m2
15:44 68.2 °F /  20.1 °C 55 °F /  12.8 °C 29.8in /  1007.5hPa ENE 4mph /  6.4km/h 9mph /  14.5km/h 63% 0in /  0.0mm 193 W/m2
15:49 67.8 °F /  19.9 °C 55.6 °F /  13.1 °C 29.8in /  1007.5hPa ESE 0.9mph /  1.4km/h 2mph /  3.2km/h 65% 0in /  0.0mm 214 W/m2
15:54 67.8 °F /  19.9 °C 56.1 °F /  13.4 °C 29.8in /  1007.5hPa East 2.9mph /  4.7km/h 9mph /  14.5km/h 66% 0in /  0.0mm 218 W/m2
15:59 67.6 °F /  19.8 °C 55.4 °F /  13 °C 29.8in /  1007.5hPa ENE 0.9mph /  1.4km/h 2mph /  3.2km/h 65% 0in /  0.0mm 253 W/m2
16:04 67.6 °F /  19.8 °C 55.9 °F /  13.3 °C 29.7in /  1007.1hPa East 2mph /  3.2km/h 4mph /  6.4km/h 66% 0in /  0.0mm 285 W/m2
16:09 67.8 °F /  19.9 °C 56.5 °F /  13.6 °C 29.8in /  1007.5hPa East 2.9mph /  4.7km/h 3mph /  4.8km/h 67% 0in /  0.0mm 292 W/m2
16:14 67.8 °F /  19.9 °C 56.1 °F /  13.4 °C 29.7in /  1007.1hPa SE 0.9mph /  1.4km/h 3mph /  4.8km/h 66% 0in /  0.0mm 306 W/m2
16:19 68 °F /  20 °C 56.3 °F /  13.5 °C 29.8in /  1007.5hPa East 0.9mph /  1.4km/h 6mph /  9.7km/h 66% 0in /  0.0mm 308 W/m2
16:24 67.8 °F /  19.9 °C 56.1 °F /  13.4 °C 29.7in /  1007.1hPa East 2.9mph /  4.7km/h 7mph /  11.3km/h 66% 0in /  0.0mm 272 W/m2
16:29 67.8 °F /  19.9 °C 56.5 °F /  13.6 °C 29.7in /  1007.1hPa East 2.9mph /  4.7km/h 4mph /  6.4km/h 67% 0in /  0.0mm 357 W/m2
16:34 68.2 °F /  20.1 °C 57.2 °F /  14 °C 29.7in /  1007.1hPa NE 2.9mph /  4.7km/h 7mph /  11.3km/h 68% 0in /  0.0mm 886 W/m2
16:39 68.9 °F /  20.5 °C 56.7 °F /  13.7 °C 29.7in /  1007.1hPa NNW 2.9mph /  4.7km/h 7mph /  11.3km/h 65% 0in /  0.0mm 443 W/m2
16:44 69.3 °F /  20.7 °C 57.4 °F /  14.1 °C 29.7in /  1006.8hPa ESE 0.9mph /  1.4km/h 4mph /  6.4km/h 66% 0in /  0.0mm 422 W/m2
16:49 69.3 °F /  20.7 °C 57 °F /  13.9 °C 29.7in /  1006.8hPa ENE 2mph /  3.2km/h 3mph /  4.8km/h 65% 0in /  0.0mm 209 W/m2
16:54 68.9 °F /  20.5 °C 55.8 °F /  13.2 °C 29.7in /  1006.8hPa ENE 0.9mph /  1.4km/h 7mph /  11.3km/h 63% 0in /  0.0mm 243 W/m2
16:59 69.1 °F /  20.6 °C 56.5 °F /  13.6 °C 29.7in /  1006.8hPa NE 2.9mph /  4.7km/h 5mph /  8km/h 64% 0in /  0.0mm 754 W/m2
17:04 69.4 °F /  20.8 °C 55.9 °F /  13.3 °C 29.7in /  1006.8hPa SW 2mph /  3.2km/h 12mph /  19.3km/h 62% 0in /  0.0mm 654 W/m2
17:09 70 °F /  21.1 °C 56.3 °F /  13.5 °C 29.7in /  1006.8hPa SE 4.9mph /  7.9km/h 7mph /  11.3km/h 62% 0in /  0.0mm 638 W/m2
17:15 70.2 °F /  21.2 °C 56.1 °F /  13.4 °C 29.7in /  1006.8hPa SSE 4mph /  6.4km/h 11mph /  17.7km/h 61% 0in /  0.0mm 619 W/m2
17:20 70.3 °F /  21.3 °C 55.8 °F /  13.2 °C 29.7in /  1006.8hPa NE 4.9mph /  7.9km/h 8mph /  12.9km/h 60% 0in /  0.0mm 613 W/m2
17:25 70.5 °F /  21.4 °C 55.6 °F /  13.1 °C 29.7in /  1006.8hPa ENE 2mph /  3.2km/h 10mph /  16.1km/h 59% 0in /  0.0mm 619 W/m2
17:30 70.5 °F /  21.4 °C 55.9 °F /  13.3 °C 29.7in /  1006.8hPa NE 6mph /  9.7km/h 6mph /  9.7km/h 60% 0in /  0.0mm 592 W/m2
17:35 70.9 °F /  21.6 °C 55.8 °F /  13.2 °C 29.7in /  1006.8hPa East 10.1mph /  16.3km/h 10mph /  16.1km/h 59% 0in /  0.0mm 121 W/m2
17:40 70.5 °F /  21.4 °C 54.5 °F /  12.5 °C 29.7in /  1006.8hPa ESE 0.9mph /  1.4km/h 5mph /  8km/h 57% 0in /  0.0mm 172 W/m2
17:45 70.5 °F /  21.4 °C 55 °F /  12.8 °C 29.7in /  1006.4hPa ENE 2mph /  3.2km/h 8mph /  12.9km/h 58% 0in /  0.0mm 550 W/m2
17:50 70.3 °F /  21.3 °C 55.8 °F /  13.2 °C 29.7in /  1006.4hPa ENE 2.9mph /  4.7km/h 7mph /  11.3km/h 60% 0in /  0.0mm 552 W/m2
17:55 70.9 °F /  21.6 °C 55.8 °F /  13.2 °C 29.7in /  1006.4hPa SW 2mph /  3.2km/h 5mph /  8km/h 59% 0in /  0.0mm 554 W/m2
18:00 70.9 °F /  21.6 °C 55.8 °F /  13.2 °C 29.7in /  1006.4hPa NE 2mph /  3.2km/h 5mph /  8km/h 59% 0in /  0.0mm 127 W/m2
18:05 70.3 °F /  21.3 °C 55.4 °F /  13 °C 29.7in /  1006.4hPa North 2mph /  3.2km/h 7mph /  11.3km/h 59% 0in /  0.0mm 531 W/m2
18:10 70.3 °F /  21.3 °C 55.8 °F /  13.2 °C 29.7in /  1006.4hPa East 2.9mph /  4.7km/h 3mph /  4.8km/h 60% 0in /  0.0mm 492 W/m2
18:15 70.5 °F /  21.4 °C 55.6 °F /  13.1 °C 29.7in /  1006.4hPa ENE 6.9mph /  11.1km/h 10mph /  16.1km/h 59% 0in /  0.0mm 504 W/m2
18:20 70.3 °F /  21.3 °C 55.8 °F /  13.2 °C 29.7in /  1006.4hPa SSE 2mph /  3.2km/h 9mph /  14.5km/h 60% 0in /  0.0mm 102 W/m2
18:25 70 °F /  21.1 °C 55.4 °F /  13 °C 29.7in /  1006.4hPa NE 2.9mph /  4.7km/h 10mph /  16.1km/h 60% 0in /  0.0mm 461 W/m2
18:30 70.2 °F /  21.2 °C 56.5 °F /  13.6 °C 29.7in /  1006.4hPa ESE 2.9mph /  4.7km/h 4mph /  6.4km/h 62% 0in /  0.0mm 434 W/m2
18:35 70.2 °F /  21.2 °C 56.1 °F /  13.4 °C 29.7in /  1006.1hPa NNE 0.9mph /  1.4km/h 7mph /  11.3km/h 61% 0in /  0.0mm 102 W/m2
18:40 69.4 °F /  20.8 °C 56.3 °F /  13.5 °C 29.7in /  1006.1hPa North 2.9mph /  4.7km/h 3mph /  4.8km/h 63% 0in /  0.0mm 91 W/m2
18:45 69.4 °F /  20.8 °C 56.7 °F /  13.7 °C 29.7in /  1006.1hPa East 2.9mph /  4.7km/h 4mph /  6.4km/h 64% 0in /  0.0mm 84 W/m2
18:50 69.3 °F /  20.7 °C 55.8 °F /  13.2 °C 29.7in /  1006.1hPa East 7mph /  11.3km/h 7mph /  11.3km/h 62% 0in /  0.0mm 107 W/m2
18:55 69.1 °F /  20.6 °C 55.9 °F /  13.3 °C 29.7in /  1006.1hPa Calm   4mph /  6.4km/h 63% 0in /  0.0mm 250 W/m2
19:00 69.1 °F /  20.6 °C 55.6 °F /  13.1 °C 29.7in /  1006.4hPa NNE 2.9mph /  4.7km/h 12mph /  19.3km/h 62% 0in /  0.0mm 260 W/m2
19:05 69.3 °F /  20.7 °C 54.3 °F /  12.4 °C 29.7in /  1006.4hPa North 2mph /  3.2km/h 4mph /  6.4km/h 59% 0in /  0.0mm 283 W/m2
19:10 69.4 °F /  20.8 °C 54.5 °F /  12.5 °C 29.7in /  1006.4hPa ESE 2mph /  3.2km/h 6mph /  9.7km/h 59% 0in /  0.0mm 297 W/m2
19:15 69.4 °F /  20.8 °C 54.9 °F /  12.7 °C 29.7in /  1006.4hPa SE 4mph /  6.4km/h 7mph /  11.3km/h 60% 0in /  0.0mm 302 W/m2
19:20 69.3 °F /  20.7 °C 55.2 °F /  12.9 °C 29.7in /  1006.4hPa NE 2mph /  3.2km/h 2mph /  3.2km/h 61% 0in /  0.0mm 290 W/m2
19:25 69.6 °F /  20.9 °C 55 °F /  12.8 °C 29.7in /  1006.4hPa North 4.9mph /  7.9km/h 5mph /  8km/h 60% 0in /  0.0mm 276 W/m2
19:30 69.6 °F /  20.9 °C 55 °F /  12.8 °C 29.7in /  1006.4hPa NNE 2mph /  3.2km/h 6mph /  9.7km/h 60% 0in /  0.0mm 255 W/m2
19:35 69.6 °F /  20.9 °C 55.6 °F /  13.1 °C 29.7in /  1006.1hPa NNE 2mph /  3.2km/h 4mph /  6.4km/h 61% 0in /  0.0mm 227 W/m2
19:41 69.6 °F /  20.9 °C 55.9 °F /  13.3 °C 29.7in /  1006.4hPa NE 0.9mph /  1.4km/h 2mph /  3.2km/h 62% 0in /  0.0mm 192 W/m2
19:46 69.6 °F /  20.9 °C 55.6 °F /  13.1 °C 29.7in /  1006.4hPa East 2mph /  3.2km/h 7mph /  11.3km/h 61% 0in /  0.0mm 174 W/m2
19:51 69.6 °F /  20.9 °C 55.6 °F /  13.1 °C 29.7in /  1006.4hPa ESE 2mph /  3.2km/h 6mph /  9.7km/h 61% 0in /  0.0mm 169 W/m2
19:56 69.6 °F /  20.9 °C 55.6 °F /  13.1 °C 29.7in /  1006.4hPa SE 2.9mph /  4.7km/h 5mph /  8km/h 61% 0in /  0.0mm 179 W/m2
20:01 69.4 °F /  20.8 °C 55.9 °F /  13.3 °C 29.7in /  1006.4hPa ENE 4.9mph /  7.9km/h 5mph /  8km/h 62% 0in /  0.0mm 163 W/m2
20:06 69.4 °F /  20.8 °C 55.4 °F /  13 °C 29.7in /  1006.4hPa NE 2mph /  3.2km/h 9mph /  14.5km/h 61% 0in /  0.0mm 141 W/m2
20:11 69.1 °F /  20.6 °C 55.6 °F /  13.1 °C 29.7in /  1006.4hPa NE 4mph /  6.4km/h 8mph /  12.9km/h 62% 0in /  0.0mm 134 W/m2
20:16 68.7 °F /  20.4 °C 56.1 °F /  13.4 °C 29.7in /  1006.4hPa East 0.9mph /  1.4km/h 4mph /  6.4km/h 64% 0in /  0.0mm 121 W/m2
20:21 68.5 °F /  20.3 °C 55.9 °F /  13.3 °C 29.7in /  1006.4hPa Calm   2mph /  3.2km/h 64% 0in /  0.0mm 105 W/m2
20:26 68.5 °F /  20.3 °C 55.9 °F /  13.3 °C 29.7in /  1006.4hPa ENE 2mph /  3.2km/h 5mph /  8km/h 64% 0in /  0.0mm 105 W/m2
20:31 68.4 °F /  20.2 °C 55.8 °F /  13.2 °C 29.7in /  1006.4hPa ESE 0.9mph /  1.4km/h 5mph /  8km/h 64% 0in /  0.0mm 90 W/m2
20:36 68.4 °F /  20.2 °C 55.8 °F /  13.2 °C 29.7in /  1006.4hPa ENE 0.9mph /  1.4km/h 7mph /  11.3km/h 64% 0in /  0.0mm 77 W/m2
20:41 68.2 °F /  20.1 °C 55.9 °F /  13.3 °C 29.7in /  1006.4hPa East 0.9mph /  1.4km/h 5mph /  8km/h 65% 0in /  0.0mm 77 W/m2
20:46 68.2 °F /  20.1 °C 55.9 °F /  13.3 °C 29.7in /  1006.4hPa SSE 0.9mph /  1.4km/h 2mph /  3.2km/h 65% 0in /  0.0mm 58 W/m2
20:51 67.8 °F /  19.9 °C 56.1 °F /  13.4 °C 29.7in /  1006.4hPa NE 0.9mph /  1.4km/h 3mph /  4.8km/h 66% 0in /  0.0mm 51 W/m2
20:56 67.5 °F /  19.7 °C 55.2 °F /  12.9 °C 29.7in /  1006.4hPa East 0.9mph /  1.4km/h 3mph /  4.8km/h 65% 0in /  0.0mm 42 W/m2
21:01 67.3 °F /  19.6 °C 55 °F /  12.8 °C 29.7in /  1006.4hPa East 0.9mph /  1.4km/h 4mph /  6.4km/h 65% 0in /  0.0mm 37 W/m2
21:06 66.9 °F /  19.4 °C 54.9 °F /  12.7 °C 29.7in /  1006.4hPa ENE 6mph /  9.7km/h 6mph /  9.7km/h 65% 0in /  0.0mm 28 W/m2
21:11 66.6 °F /  19.2 °C 55.2 °F /  12.9 °C 29.7in /  1006.4hPa Calm   3mph /  4.8km/h 67% 0in /  0.0mm 16 W/m2
21:16 65.8 °F /  18.8 °C 54.5 °F /  12.5 °C 29.7in /  1006.4hPa NE 2mph /  3.2km/h 3mph /  4.8km/h 67% 0in /  0.0mm 14 W/m2
21:21 65.5 °F /  18.6 °C 55 °F /  12.8 °C 29.7in /  1006.4hPa Calm     69% 0in /  0.0mm 12 W/m2
21:26 64.9 °F /  18.3 °C 54.1 °F /  12.3 °C 29.7in /  1006.4hPa ESE 2mph /  3.2km/h 4mph /  6.4km/h 68% 0in /  0.0mm 11 W/m2
21:31 64.6 °F /  18.1 °C 54.1 °F /  12.3 °C 29.7in /  1006.4hPa NE 2mph /  3.2km/h 2mph /  3.2km/h 69% 0in /  0.0mm 7 W/m2
21:36 64.2 °F /  17.9 °C 53.8 °F /  12.1 °C 29.7in /  1006.8hPa East 2.9mph /  4.7km/h 9mph /  14.5km/h 69% 0in /  0.0mm 5 W/m2
21:42 64 °F /  17.8 °C 53.6 °F /  12 °C 29.7in /  1006.8hPa ENE 0.9mph /  1.4km/h 5mph /  8km/h 69% 0in /  0.0mm 5 W/m2
21:47 63.9 °F /  17.7 °C 54.3 °F /  12.4 °C 29.7in /  1006.8hPa Calm   9mph /  14.5km/h 71% 0in /  0.0mm 0 W/m2
21:52 63.3 °F /  17.4 °C 53.8 °F /  12.1 °C 29.7in /  1006.8hPa Calm   1mph /  1.6km/h 71% 0in /  0.0mm 0 W/m2
21:57 63 °F /  17.2 °C 53.8 °F /  12.1 °C 29.7in /  1006.8hPa NE 2mph /  3.2km/h 6mph /  9.7km/h 72% 0in /  0.0mm 0 W/m2
22:02 62.8 °F /  17.1 °C 54 °F /  12.2 °C 29.7in /  1006.8hPa East 0.9mph /  1.4km/h 1mph /  1.6km/h 73% 0in /  0.0mm 0 W/m2
22:07 62.4 °F /  16.9 °C 54 °F /  12.2 °C 29.7in /  1007.1hPa SE 2mph /  3.2km/h 6mph /  9.7km/h 74% 0in /  0.0mm 0 W/m2
22:12 62.2 °F /  16.8 °C 53.8 °F /  12.1 °C 29.7in /  1007.1hPa Calm   1mph /  1.6km/h 74% 0in /  0.0mm 0 W/m2
22:17 62.1 °F /  16.7 °C 54 °F /  12.2 °C 29.7in /  1007.1hPa ESE 2mph /  3.2km/h 7mph /  11.3km/h 75% 0in /  0.0mm 0 W/m2
22:22 61.7 °F /  16.5 °C 53.8 °F /  12.1 °C 29.7in /  1007.1hPa ENE 0.9mph /  1.4km/h 3mph /  4.8km/h 75% 0in /  0.0mm 0 W/m2
22:27 61.5 °F /  16.4 °C 54 °F /  12.2 °C 29.7in /  1007.1hPa Calm   6mph /  9.7km/h 76% 0in /  0.0mm 0 W/m2
22:32 61.3 °F /  16.3 °C 54.1 °F /  12.3 °C 29.7in /  1007.1hPa Calm   2mph /  3.2km/h 77% 0in /  0.0mm 0 W/m2
22:37 61.3 °F /  16.3 °C 54.1 °F /  12.3 °C 29.7in /  1007.1hPa ESE 0.9mph /  1.4km/h 6mph /  9.7km/h 77% 0in /  0.0mm 0 W/m2
22:42 61.2 °F /  16.2 °C 54 °F /  12.2 °C 29.8in /  1007.5hPa East 0.9mph /  1.4km/h 2mph /  3.2km/h 77% 0in /  0.0mm 0 W/m2
22:47 61.2 °F /  16.2 °C 54 °F /  12.2 °C 29.7in /  1007.1hPa Calm   3mph /  4.8km/h 77% 0in /  0.0mm 0 W/m2
22:52 61.2 °F /  16.2 °C 54.3 °F /  12.4 °C 29.7in /  1007.1hPa ENE 0.9mph /  1.4km/h 4mph /  6.4km/h 78% 0in /  0.0mm 0 W/m2
22:57 61.2 °F /  16.2 °C 54.3 °F /  12.4 °C 29.7in /  1007.1hPa NE 0.9mph /  1.4km/h 3mph /  4.8km/h 78% 0in /  0.0mm 0 W/m2
23:02 61 °F /  16.1 °C 54.5 °F /  12.5 °C 29.7in /  1007.1hPa East 2.9mph /  4.7km/h 3mph /  4.8km/h 79% 0in /  0.0mm 0 W/m2
23:07 60.6 °F /  15.9 °C 54.1 °F /  12.3 °C 29.8in /  1007.5hPa East 6mph /  9.7km/h 6mph /  9.7km/h 79% 0in /  0.0mm 0 W/m2
23:12 60.6 °F /  15.9 °C 54.1 °F /  12.3 °C 29.8in /  1007.5hPa Calm   4mph /  6.4km/h 79% 0in /  0.0mm 0 W/m2
23:17 60.4 °F /  15.8 °C 54.3 °F /  12.4 °C 29.7in /  1007.1hPa Calm   3mph /  4.8km/h 80% 0in /  0.0mm 0 W/m2
23:22 60.4 °F /  15.8 °C 54.3 °F /  12.4 °C 29.7in /  1007.1hPa Calm   2mph /  3.2km/h 80% 0in /  0.0mm 0 W/m2
23:27 60.3 °F /  15.7 °C 54.1 °F /  12.3 °C 29.7in /  1007.1hPa Calm   1mph /  1.6km/h 80% 0in /  0.0mm 0 W/m2
23:32 59.9 °F /  15.5 °C 54.1 °F /  12.3 °C 29.7in /  1007.1hPa Calm   1mph /  1.6km/h 81% 0in /  0.0mm 0 W/m2
23:37 59.5 °F /  15.3 °C 53.8 °F /  12.1 °C 29.7in /  1007.1hPa Calm     81% 0in /  0.0mm 0 W/m2
23:42 59.4 °F /  15.2 °C 53.8 °F /  12.1 °C 29.7in /  1007.1hPa Calm     82% 0in /  0.0mm 0 W/m2
23:47 59 °F /  15 °C 53.8 °F /  12.1 °C 29.7in /  1007.1hPa Calm   1mph /  1.6km/h 83% 0in /  0.0mm 0 W/m2
23:52 58.6 °F /  14.8 °C 53.8 °F /  12.1 °C 29.7in /  1007.1hPa Calm     84% 0in /  0.0mm 0 W/m2
23:57 58.5 °F /  14.7 °C 53.6 °F /  12 °C 29.7in /  1007.1hPa Calm     84% 0in /  0.0mm 0 W/m2
Juneau County Weather
Compliments of Weather Underground - 4 mb